createdAt,value
2022-08-23T00:00:13.425Z,101372.00
2022-08-23T00:03:04.132Z,101376.34
2022-08-23T00:05:35.168Z,101386.50
2022-08-23T00:08:06.249Z,101388.81
2022-08-23T00:10:36.438Z,101382.06
2022-08-23T00:13:06.738Z,101383.22
2022-08-23T00:15:38.630Z,101376.50
2022-08-23T00:18:09.035Z,101380.19
2022-08-23T00:20:39.209Z,101376.75
2022-08-23T00:23:09.540Z,101368.03
2022-08-23T00:25:39.858Z,101368.03
2022-08-23T00:28:11.428Z,101364.59
2022-08-23T00:30:46.607Z,101362.56
2022-08-23T00:33:16.899Z,101375.00
2022-08-23T00:35:47.359Z,101362.56
2022-08-23T00:38:32.835Z,101359.22
2022-08-23T00:41:05.950Z,101357.84
2022-08-23T00:44:09.948Z,101365.09
2022-08-23T00:47:03.976Z,101360.72
2022-08-23T00:49:35.996Z,101361.66
2022-08-23T00:52:10.088Z,101354.69
2022-08-23T00:54:42.836Z,101355.59
2022-08-23T00:57:16.480Z,101354.00
2022-08-23T00:59:46.778Z,101360.31
2022-08-23T01:02:19.375Z,101352.25
2022-08-23T01:04:56.286Z,101354.03
2022-08-23T01:07:46.277Z,101347.69
2022-08-23T01:10:22.746Z,101353.31
2022-08-23T01:13:01.318Z,101344.53
2022-08-23T01:15:36.784Z,101347.28
2022-08-23T01:18:11.221Z,101347.34
2022-08-23T01:20:46.180Z,101352.00
2022-08-23T01:23:33.058Z,101323.34
2022-08-23T01:26:04.069Z,101355.97
2022-08-23T01:28:34.937Z,101364.03
2022-08-23T01:31:06.680Z,101359.38
2022-08-23T01:33:38.409Z,101359.97
2022-08-23T01:36:09.724Z,101365.13
2022-08-23T01:38:43.160Z,101362.41
2022-08-23T01:41:13.815Z,101367.25
2022-08-23T01:43:44.778Z,101371.72
2022-08-23T01:46:18.297Z,101366.22
2022-08-23T01:48:50.296Z,101375.09
2022-08-23T01:51:21.958Z,101370.53
2022-08-23T01:53:54.327Z,101366.91
2022-08-23T01:56:38.147Z,101363.47
2022-08-23T01:59:11.958Z,101367.91
2022-08-23T02:01:50.796Z,101369.72
2022-08-23T02:04:22.746Z,101371.59
2022-08-23T02:06:52.877Z,101372.53
2022-08-23T02:09:27.558Z,101361.78
2022-08-23T02:12:01.237Z,101361.66
2022-08-23T02:14:33.277Z,101359.91
2022-08-23T02:17:04.928Z,101362.16
2022-08-23T02:19:36.991Z,101358.88
2022-08-23T02:22:09.363Z,101355.28
2022-08-23T02:24:45.274Z,101357.81
2022-08-23T02:27:16.865Z,101356.69
2022-08-23T02:29:50.485Z,101354.75
2022-08-23T02:32:27.260Z,101360.91
2022-08-23T02:35:04.945Z,101361.78
2022-08-23T02:37:37.625Z,101363.41
2022-08-23T02:40:11.678Z,101360.84
2022-08-23T02:42:42.453Z,101367.28
2022-08-23T02:45:13.505Z,101369.81
2022-08-23T02:47:48.655Z,101365.53
2022-08-23T02:50:24.455Z,101362.19
2022-08-23T02:52:55.535Z,101349.78
2022-08-23T02:55:27.706Z,101347.22
2022-08-23T02:57:59.550Z,101350.22
2022-08-23T03:00:30.275Z,101349.47
2022-08-23T03:03:00.595Z,101351.28
2022-08-23T03:05:31.646Z,101366.59
2022-08-23T03:08:02.296Z,101369.56
2022-08-23T03:10:41.406Z,101363.50
2022-08-23T03:13:12.345Z,101367.06
2022-08-23T03:15:43.524Z,101373.31
2022-08-23T03:18:13.924Z,101367.88
2022-08-23T03:20:44.555Z,101362.44
2022-08-23T03:23:16.275Z,101371.50
2022-08-23T03:25:49.635Z,101378.69
2022-08-23T03:28:26.723Z,101374.25
2022-08-23T03:30:58.266Z,101377.84
2022-08-23T03:33:28.374Z,101380.31
2022-08-23T03:36:01.595Z,101385.69
2022-08-23T03:38:34.195Z,101386.53
2022-08-23T03:41:08.596Z,101393.66
2022-08-23T03:43:39.937Z,101391.84
2022-08-23T03:46:23.205Z,101393.47
2022-08-23T03:49:08.617Z,101390.84
2022-08-23T03:52:00.634Z,101391.41
2022-08-23T03:54:33.596Z,101384.09
2022-08-23T03:57:09.625Z,101389.47
2022-08-23T03:59:43.016Z,101394.97
2022-08-23T04:02:15.332Z,101387.56
2022-08-23T04:04:45.866Z,101389.06
2022-08-23T04:07:37.586Z,101384.88
2022-08-23T04:10:14.104Z,101381.81
2022-08-23T04:12:46.567Z,101377.81
2022-08-23T04:15:20.755Z,101375.50
2022-08-23T04:17:52.105Z,101370.03
2022-08-23T04:20:22.534Z,101372.66
2022-08-23T04:23:03.277Z,101376.91
2022-08-23T04:25:37.344Z,101372.31
2022-08-23T04:28:10.155Z,101363.13
2022-08-23T04:30:40.298Z,101367.31
2022-08-23T04:33:17.719Z,101366.31
2022-08-23T04:35:48.436Z,101370.84
2022-08-23T04:38:24.946Z,101365.38
2022-08-23T04:41:19.154Z,101367.94
2022-08-23T04:43:52.216Z,101374.97
2022-08-23T04:46:22.346Z,101370.63
2022-08-23T04:48:54.424Z,101372.34
2022-08-23T04:51:24.584Z,101369.56
2022-08-23T04:53:55.767Z,101377.59
2022-08-23T04:56:46.115Z,101375.84
2022-08-23T04:59:25.974Z,101382.97
2022-08-23T05:01:56.215Z,101378.47
2022-08-23T05:04:26.767Z,101374.78
2022-08-23T05:06:56.905Z,101373.84
2022-08-23T05:09:27.436Z,101370.13
2022-08-23T05:11:57.646Z,101370.03
2022-08-23T05:14:30.249Z,101367.25
2022-08-23T05:17:00.336Z,101379.69
2022-08-23T05:19:30.864Z,101373.44
2022-08-23T05:22:01.057Z,101384.22
2022-08-23T05:24:52.194Z,101381.44
2022-08-23T05:27:23.035Z,101383.09
2022-08-23T05:29:56.238Z,101377.56
2022-08-23T05:32:29.354Z,101375.53
2022-08-23T05:35:02.147Z,101375.44
2022-08-23T05:37:32.924Z,101374.50
2022-08-23T05:40:03.345Z,101383.63
2022-08-23T05:42:37.466Z,101385.41
2022-08-23T05:45:10.857Z,101387.84
2022-08-23T05:47:41.184Z,101393.13
2022-08-23T05:50:24.626Z,101394.00
2022-08-23T05:52:54.545Z,101395.41
2022-08-23T05:55:27.654Z,101393.59
2022-08-23T05:58:22.394Z,101388.75
2022-08-23T06:00:55.771Z,101388.22
2022-08-23T06:03:26.316Z,101389.69
2022-08-23T06:05:59.687Z,101386.22
2022-08-23T06:08:30.467Z,101391.22
2022-08-23T06:11:03.716Z,101391.94
2022-08-23T06:13:44.196Z,101390.19
2022-08-23T06:16:17.787Z,101391.66
2022-08-23T06:18:48.879Z,101398.69
2022-08-23T06:21:45.967Z,101391.31
2022-08-23T06:24:17.134Z,101398.72
2022-08-23T06:27:00.307Z,101406.59
2022-08-23T06:29:31.315Z,101401.94
2022-08-23T06:32:21.452Z,101401.72
2022-08-23T06:35:38.049Z,101394.03
2022-08-23T06:38:09.896Z,101407.19
2022-08-23T06:41:03.179Z,101409.75
2022-08-23T06:43:43.626Z,101413.97
2022-08-23T06:46:40.233Z,101416.75
2022-08-23T06:49:13.094Z,101419.06
2022-08-23T06:51:46.130Z,101412.38
2022-08-23T06:54:32.515Z,101410.41
2022-08-23T06:57:21.656Z,101407.41
2022-08-23T07:00:20.164Z,101408.22
2022-08-23T07:03:11.748Z,101412.38
2022-08-23T07:06:02.027Z,101414.00
2022-08-23T07:08:35.165Z,101411.47
2022-08-23T07:11:05.618Z,101414.53
2022-08-23T07:13:36.184Z,101409.88
2022-08-23T07:16:06.753Z,101416.22
2022-08-23T07:18:37.335Z,101418.94
2022-08-23T07:21:09.426Z,101427.69
2022-08-23T07:23:46.441Z,101425.75
2022-08-23T07:26:19.085Z,101433.63
2022-08-23T07:28:49.474Z,101424.41
2022-08-23T07:31:23.413Z,101422.22
2022-08-23T07:33:53.836Z,101417.38
2022-08-23T07:36:28.685Z,101415.41
2022-08-23T07:38:59.794Z,101424.25
2022-08-23T07:41:33.056Z,101420.94
2022-08-23T07:44:06.467Z,101413.81
2022-08-23T07:46:40.549Z,101431.72
2022-08-23T07:49:13.196Z,101434.56
2022-08-23T07:51:51.365Z,101438.66
2022-08-23T07:54:25.741Z,101436.25
2022-08-23T07:57:04.303Z,101426.34
2022-08-23T07:59:57.347Z,101436.38
2022-08-23T08:02:30.340Z,101440.63
2022-08-23T08:05:01.835Z,101440.75
2022-08-23T08:07:35.428Z,101442.09
2022-08-23T08:10:09.184Z,101441.69
2022-08-23T08:12:39.015Z,101442.31
2022-08-23T08:15:19.527Z,101447.19
2022-08-23T08:17:56.610Z,101456.19
2022-08-23T08:20:47.056Z,101451.56
2022-08-23T08:23:44.904Z,101448.16
2022-08-23T08:26:36.517Z,101455.91
2022-08-23T08:29:07.604Z,101460.56
2022-08-23T08:31:39.667Z,101446.56
2022-08-23T08:34:10.495Z,101440.84
2022-08-23T08:36:41.713Z,101439.56
2022-08-23T08:39:22.405Z,101444.75
2022-08-23T08:42:15.114Z,101435.41
2022-08-23T08:44:54.810Z,101433.66
2022-08-23T08:47:39.735Z,101439.28
2022-08-23T08:50:20.141Z,101440.22
2022-08-23T08:52:59.045Z,101445.09
2022-08-23T08:55:53.606Z,101429.81
2022-08-23T08:58:29.774Z,101421.00
2022-08-23T09:01:00.078Z,101429.19
2022-08-23T09:03:34.397Z,101425.53
2022-08-23T09:06:24.136Z,101435.66
2022-08-23T09:09:17.624Z,101443.28
2022-08-23T09:12:00.255Z,101435.44
2022-08-23T09:14:57.734Z,101430.97
2022-08-23T09:17:37.132Z,101437.78
2022-08-23T09:20:10.685Z,101430.22
2022-08-23T09:22:44.894Z,101440.44
2022-08-23T09:25:26.008Z,101441.88
2022-08-23T09:28:07.376Z,101444.34
2022-08-23T09:30:50.985Z,101447.34
2022-08-23T09:33:26.317Z,101455.63
2022-08-23T09:36:14.867Z,101445.91
2022-08-23T09:38:55.536Z,101444.00
2022-08-23T09:41:33.356Z,101448.28
2022-08-23T09:44:08.845Z,101441.22
2022-08-23T09:46:43.031Z,101445.28
2022-08-23T09:49:28.868Z,101457.53
2022-08-23T09:52:21.904Z,101455.81
2022-08-23T09:55:01.295Z,101455.53
2022-08-23T09:57:37.086Z,101450.56
2022-08-23T10:00:28.114Z,101451.25
2022-08-23T10:03:22.978Z,101449.19
2022-08-23T10:05:57.516Z,101447.09
2022-08-23T10:08:33.166Z,101447.78
2022-08-23T10:11:20.477Z,101440.38
2022-08-23T10:13:52.605Z,101455.22
2022-08-23T10:16:35.672Z,101453.72
2022-08-23T10:19:27.684Z,101450.06
2022-08-23T10:22:05.701Z,101442.50
2022-08-23T10:24:46.986Z,101447.47
2022-08-23T10:27:47.045Z,101449.50
2022-08-23T10:30:20.807Z,101443.97
2022-08-23T10:33:08.375Z,101446.72
2022-08-23T10:35:54.312Z,101448.53
2022-08-23T10:38:41.405Z,101447.31
2022-08-23T10:41:28.135Z,101445.53
2022-08-23T10:44:07.651Z,101443.69
2022-08-23T10:46:44.419Z,101454.31
2022-08-23T10:49:17.194Z,101446.81
2022-08-23T10:51:52.118Z,101443.09
2022-08-23T10:54:46.155Z,101448.25
2022-08-23T10:57:22.144Z,101453.75
2022-08-23T10:59:54.512Z,101454.59
2022-08-23T11:02:36.432Z,101451.91
2022-08-23T11:05:27.394Z,101449.19
2022-08-23T11:08:04.124Z,101446.47
2022-08-23T11:10:55.724Z,101450.28
2022-08-23T11:13:31.124Z,101451.13
2022-08-23T11:16:07.239Z,101454.19
2022-08-23T11:18:43.977Z,101444.38
2022-08-23T11:21:47.514Z,101441.06
2022-08-23T11:24:53.966Z,101447.16
2022-08-23T11:27:38.444Z,101437.25
2022-08-23T11:30:47.285Z,101445.72
2022-08-23T11:33:24.855Z,101445.09
2022-08-23T11:36:17.213Z,101447.50
2022-08-23T11:39:06.764Z,101448.00
2022-08-23T11:41:58.338Z,101450.47
2022-08-23T11:44:42.435Z,101444.00
2022-08-23T11:47:15.816Z,101440.13
2022-08-23T11:50:28.816Z,101435.78
2022-08-23T11:53:23.149Z,101436.28
2022-08-23T11:56:20.427Z,101441.88
2022-08-23T11:59:10.836Z,101442.34
2022-08-23T12:01:47.242Z,101438.84
2022-08-23T12:04:34.815Z,101431.13
2022-08-23T12:07:13.043Z,101433.31
2022-08-23T12:09:57.938Z,101436.88
2022-08-23T12:12:38.759Z,101440.38
2022-08-23T12:15:14.137Z,101442.06
2022-08-23T12:18:18.301Z,101440.13
2022-08-23T12:20:52.936Z,101431.47
2022-08-23T12:23:23.770Z,101437.34
2022-08-23T12:26:02.115Z,101446.91
2022-08-23T12:28:40.560Z,101435.34
2022-08-23T12:31:22.903Z,101441.50
2022-08-23T12:34:06.197Z,101438.34
2022-08-23T12:36:48.313Z,101436.31
2022-08-23T12:39:31.529Z,101431.03
2022-08-23T12:42:15.900Z,101442.91
2022-08-23T12:45:02.270Z,101431.38
2022-08-23T12:47:34.017Z,101420.84
2022-08-23T12:50:32.966Z,101413.56
2022-08-23T12:53:13.574Z,101423.66
2022-08-23T12:55:47.794Z,101423.03
2022-08-23T12:58:33.282Z,101417.06
2022-08-23T13:01:08.401Z,101425.56
2022-08-23T13:03:45.052Z,101428.09
2022-08-23T13:06:21.134Z,101428.66
2022-08-23T13:08:56.495Z,101429.81
2022-08-23T13:11:38.774Z,101437.28
2022-08-23T13:14:25.479Z,101425.00
2022-08-23T13:16:59.706Z,101421.84
2022-08-23T13:19:34.475Z,101418.25
2022-08-23T13:22:23.357Z,101420.88
2022-08-23T13:25:29.246Z,101432.41
2022-08-23T13:28:04.553Z,101430.69
2022-08-23T13:30:37.465Z,101431.47
2022-08-23T13:33:24.143Z,101424.88
2022-08-23T13:36:13.386Z,101430.31
2022-08-23T13:38:46.154Z,101418.94
2022-08-23T13:41:38.454Z,101414.88
2022-08-23T13:44:19.072Z,101406.09
2022-08-23T13:46:50.987Z,101414.44
2022-08-23T13:49:28.970Z,101415.63
2022-08-23T13:55:01.765Z,101409.84
2022-08-23T13:57:37.677Z,101425.72
2022-08-23T14:00:10.835Z,101411.97
2022-08-23T14:02:42.763Z,101423.47
2022-08-23T14:05:18.478Z,101424.03
2022-08-23T14:07:53.365Z,101414.19
2022-08-23T14:10:25.227Z,101420.09
2022-08-23T14:13:01.620Z,101411.97
2022-08-23T14:18:25.623Z,101404.09
2022-08-23T14:21:00.985Z,101411.44
2022-08-23T14:23:35.006Z,101404.81
2022-08-23T14:26:06.284Z,101407.84
2022-08-23T14:28:44.433Z,101408.25
2022-08-23T14:31:18.301Z,101408.41
2022-08-23T14:33:50.415Z,101406.22
2022-08-23T14:36:26.022Z,101404.13
2022-08-23T14:39:01.355Z,101401.78
2022-08-23T14:41:32.855Z,101401.13
2022-08-23T14:44:07.697Z,101402.00
2022-08-23T14:46:39.716Z,101409.16
2022-08-23T14:49:12.366Z,101402.38
2022-08-23T14:51:48.386Z,101409.03
2022-08-23T14:54:24.149Z,101412.97
2022-08-23T14:56:56.767Z,101419.19
2022-08-23T14:59:29.045Z,101392.22
2022-08-23T15:02:05.103Z,101419.09
2022-08-23T15:04:42.291Z,101423.41
2022-08-23T15:07:18.847Z,101425.53
2022-08-23T15:10:00.392Z,101429.63
2022-08-23T15:15:28.938Z,101442.94
2022-08-23T15:18:05.448Z,101435.66
2022-08-23T15:20:44.441Z,101455.53
2022-08-23T15:23:19.871Z,101461.72
2022-08-23T15:25:52.561Z,101465.56
2022-08-23T15:28:25.668Z,101473.53
2022-08-23T15:30:56.665Z,101465.97
2022-08-23T15:33:30.773Z,101465.66
2022-08-23T15:36:03.947Z,101462.31
2022-08-23T15:38:38.374Z,101477.81
2022-08-23T15:41:09.155Z,101476.38
2022-08-23T15:43:42.521Z,101472.25
2022-08-23T15:46:20.648Z,101470.56
2022-08-23T15:48:56.646Z,101471.00
2022-08-23T15:51:28.628Z,101468.59
2022-08-23T15:54:00.804Z,101477.31
2022-08-23T15:56:35.781Z,101481.13
2022-08-23T15:59:07.091Z,101483.28
2022-08-23T16:01:38.266Z,101480.66
2022-08-23T16:04:09.473Z,101483.66
2022-08-23T16:06:41.024Z,101485.94
2022-08-23T16:09:21.515Z,101476.31
2022-08-23T16:11:57.144Z,101479.00
2022-08-23T16:14:31.557Z,101482.41
2022-08-23T16:17:03.158Z,101489.19
2022-08-23T16:19:33.913Z,101486.56
2022-08-23T16:22:05.936Z,101489.00
2022-08-23T16:24:38.638Z,101485.72
2022-08-23T16:27:10.505Z,101486.03
2022-08-23T16:29:41.393Z,101486.84
2022-08-23T16:32:12.345Z,101489.56
2022-08-23T16:34:43.651Z,101483.59
2022-08-23T16:37:17.067Z,101473.78
2022-08-23T16:39:53.799Z,101473.06
2022-08-23T16:42:26.402Z,101473.84
2022-08-23T16:44:59.327Z,101478.59
2022-08-23T16:47:36.854Z,101476.16
2022-08-23T16:50:09.839Z,101475.31
2022-08-23T16:52:50.565Z,101476.72
2022-08-23T16:55:27.042Z,101489.00
2022-08-23T16:57:59.656Z,101482.00
2022-08-23T17:00:36.506Z,101489.41
2022-08-23T17:03:09.790Z,101487.66
2022-08-23T17:05:40.329Z,101490.38
2022-08-23T17:08:11.724Z,101502.94
2022-08-23T17:10:44.941Z,101515.72
2022-08-23T17:13:17.682Z,101521.13
2022-08-23T17:15:52.092Z,101527.50
2022-08-23T17:18:26.884Z,101539.97
2022-08-23T17:20:58.837Z,101539.09
2022-08-23T17:23:30.685Z,101545.66
2022-08-23T17:26:02.941Z,101548.97
2022-08-23T17:28:34.500Z,101549.91
2022-08-23T17:31:05.596Z,101567.09
2022-08-23T17:33:36.414Z,101586.09
2022-08-23T17:36:08.595Z,101609.66
2022-08-23T17:38:39.734Z,101625.56
2022-08-23T17:41:11.463Z,101631.25
2022-08-23T17:43:42.754Z,101641.63
2022-08-23T17:46:13.081Z,101639.34
2022-08-23T17:48:44.104Z,101644.16
2022-08-23T17:51:14.305Z,101655.06
2022-08-23T17:53:46.978Z,101649.63
2022-08-23T17:56:20.210Z,101658.53
2022-08-23T17:58:52.735Z,101637.88
2022-08-23T18:01:26.036Z,101628.81
2022-08-23T18:03:59.099Z,101619.34
2022-08-23T18:06:32.415Z,101611.84
2022-08-23T18:09:03.873Z,101599.25
2022-08-23T18:11:35.863Z,101598.75
2022-08-23T18:14:09.583Z,101583.75
2022-08-23T18:16:45.649Z,101581.25
2022-08-23T18:19:18.423Z,101577.78
2022-08-23T18:21:50.519Z,101570.91
2022-08-23T18:24:27.570Z,101555.78
2022-08-23T18:27:21.621Z,101549.91
2022-08-23T18:29:54.823Z,101552.59
2022-08-23T18:32:26.922Z,101551.81
2022-08-23T18:34:58.565Z,101568.88
2022-08-23T18:37:36.459Z,101565.13
2022-08-23T18:40:16.823Z,101564.38
2022-08-23T18:42:51.436Z,101560.63
2022-08-23T18:45:27.637Z,101559.50
2022-08-23T18:48:03.778Z,101552.53
2022-08-23T18:50:41.362Z,101550.84
2022-08-23T18:53:14.254Z,101545.69
2022-08-23T18:55:45.552Z,101545.78
2022-08-23T18:58:21.643Z,101543.09
2022-08-23T19:00:56.345Z,101541.09
2022-08-23T19:03:27.721Z,101538.47
2022-08-23T19:06:02.390Z,101537.53
2022-08-23T19:08:37.081Z,101534.84
2022-08-23T19:11:10.568Z,101541.97
2022-08-23T19:13:46.094Z,101540.16
2022-08-23T19:16:19.125Z,101534.69
2022-08-23T19:18:52.399Z,101535.84
2022-08-23T19:21:26.894Z,101543.06
2022-08-23T19:23:59.882Z,101541.44
2022-08-23T19:26:34.670Z,101543.19
2022-08-23T19:29:10.004Z,101545.06
2022-08-23T19:31:47.467Z,101547.63
2022-08-23T19:34:19.414Z,101547.69
2022-08-23T19:36:56.853Z,101545.13
2022-08-23T19:39:31.520Z,101555.09
2022-08-23T19:42:02.884Z,101551.41
2022-08-23T19:44:35.392Z,101557.91
2022-08-23T19:47:07.474Z,101569.66
2022-08-23T19:49:43.902Z,101575.03
2022-08-23T19:52:14.784Z,101582.22
2022-08-23T19:54:44.783Z,101584.06
2022-08-23T19:57:15.276Z,101585.91
2022-08-23T19:59:47.464Z,101591.28
2022-08-23T20:02:19.328Z,101592.09
2022-08-23T20:04:49.635Z,101588.53
2022-08-23T20:07:20.093Z,101584.06
2022-08-23T20:09:50.082Z,101581.31
2022-08-23T20:12:20.324Z,101579.41
2022-08-23T20:14:52.135Z,101584.81
2022-08-23T20:17:23.196Z,101581.25
2022-08-23T20:19:53.833Z,101578.38
2022-08-23T20:22:41.892Z,101588.31
2022-08-23T20:25:16.272Z,101592.84
2022-08-23T20:27:48.292Z,101596.16
2022-08-23T20:30:23.224Z,101599.94
2022-08-23T20:32:55.823Z,101588.16
2022-08-23T20:35:26.564Z,101599.94
2022-08-23T20:37:57.149Z,101607.03
2022-08-23T20:40:28.044Z,101602.69
2022-08-23T20:42:58.795Z,101601.88
2022-08-23T20:45:32.044Z,101602.88
2022-08-23T20:48:03.133Z,101594.94
2022-08-23T20:50:33.892Z,101596.75
2022-08-23T20:53:11.692Z,101593.34
2022-08-23T20:55:43.565Z,101593.41
2022-08-23T20:58:13.993Z,101587.25
2022-08-23T21:00:48.075Z,101587.31
2022-08-23T21:03:19.289Z,101588.19
2022-08-23T21:05:49.992Z,101590.00
2022-08-23T21:08:20.412Z,101590.09
2022-08-23T21:10:51.416Z,101587.44
2022-08-23T21:13:21.723Z,101589.25
2022-08-23T21:15:53.475Z,101592.94
2022-08-23T21:18:24.362Z,101591.19
2022-08-23T21:20:54.755Z,101591.25
2022-08-23T21:23:25.156Z,101592.88
2022-08-23T21:25:56.204Z,101590.91
2022-08-23T21:28:28.593Z,101583.09
2022-08-23T21:31:08.819Z,101584.00
2022-08-23T21:33:40.304Z,101588.97
2022-08-23T21:36:11.496Z,101586.50
2022-08-23T21:38:41.776Z,101584.91
2022-08-23T21:41:34.175Z,101580.47
2022-08-23T21:44:06.004Z,101582.38
2022-08-23T21:46:37.842Z,101586.09
2022-08-23T21:49:08.913Z,101590.66
2022-08-23T21:51:42.876Z,101589.94
2022-08-23T21:54:13.793Z,101589.13
2022-08-23T21:56:43.948Z,101603.25
2022-08-23T21:59:17.813Z,101596.78
2022-08-23T22:01:49.623Z,101606.31
2022-08-23T22:04:19.753Z,101596.34
2022-08-23T22:06:50.537Z,101607.13
2022-08-23T22:09:27.914Z,101603.28
2022-08-23T22:12:02.155Z,101599.06
2022-08-23T22:14:32.835Z,101595.94
2022-08-23T22:17:04.646Z,101607.44
2022-08-23T22:19:34.727Z,101601.31
2022-08-23T22:22:05.664Z,101595.25
2022-08-23T22:24:35.767Z,101599.78
2022-08-23T22:27:06.485Z,101597.28
2022-08-23T22:29:36.714Z,101598.34
2022-08-23T22:32:09.095Z,101597.41
2022-08-23T22:34:39.496Z,101596.63
2022-08-23T22:37:09.844Z,101594.78
2022-08-23T22:39:39.949Z,101590.47
2022-08-23T22:42:10.666Z,101586.84
2022-08-23T22:44:41.045Z,101587.94
2022-08-23T22:47:12.858Z,101581.78
2022-08-23T22:49:42.926Z,101580.06
2022-08-23T22:52:13.214Z,101581.94
2022-08-23T22:54:43.383Z,101577.44
2022-08-23T22:57:13.405Z,101574.81
2022-08-23T22:59:44.206Z,101573.88
2022-08-23T23:02:15.644Z,101580.88
2022-08-23T23:04:46.504Z,101574.91
2022-08-23T23:07:37.563Z,101575.97
2022-08-23T23:10:08.655Z,101575.06
2022-08-23T23:12:38.573Z,101576.06
2022-08-23T23:15:10.036Z,101582.38
2022-08-23T23:17:41.217Z,101585.13
2022-08-23T23:20:29.729Z,101584.41
2022-08-23T23:22:59.677Z,101587.16
2022-08-23T23:25:29.996Z,101600.59
2022-08-23T23:28:05.617Z,101596.19
2022-08-23T23:30:36.701Z,101596.09
2022-08-23T23:33:08.835Z,101606.69
2022-08-23T23:35:39.467Z,101594.16
2022-08-23T23:38:10.396Z,101588.97
2022-08-23T23:40:40.965Z,101587.84
2022-08-23T23:43:12.900Z,101590.53
2022-08-23T23:45:43.890Z,101576.19
2022-08-23T23:48:15.515Z,101579.56
2022-08-23T23:50:46.979Z,101578.91
2022-08-23T23:53:17.308Z,101581.56
2022-08-23T23:55:49.078Z,101586.97
2022-08-23T23:58:19.125Z,101582.53
